Time;durP1;ratioP1;P1;durP2;ratioP2;P2;SDS_P1;SDS_P2;PMS_P1;PMS_P2;Temp;Humidity;BMP_temperature;BMP_pressure;BME280_temperature;BME280_humidity;BME280_pressure;Samples;Min_cycle;Max_cycle;Signal;HPM_P1;HPM_P2
2023/07/10 00:02:17;;;;;;;59.37;55.07;;;;;;;;;;5097136;28;20463;-85
2023/07/10 00:04:44;;;;;;;56.47;52.60;;;;;;;;;;5095395;28;20483;-85
2023/07/10 00:07:11;;;;;;;57.50;53.20;;;;;;;;;;5096023;28;20485;-86
2023/07/10 00:09:38;;;;;;;55.87;51.87;;;;;;;;;;5096507;28;20414;-86
2023/07/10 00:12:09;;;;;;;57.30;53.07;;;;;;;;;;5096586;28;20438;-86
2023/07/10 00:14:36;;;;;;;55.03;51.00;;;;;;;;;;5096569;28;20477;-86
2023/07/10 00:17:04;;;;;;;57.90;52.37;;;;;;;;;;5096757;28;20431;-85
2023/07/10 00:19:31;;;;;;;58.73;54.23;;;;;;;;;;5096933;28;20419;-85
2023/07/10 00:21:58;;;;;;;56.07;51.77;;;;;;;;;;5096860;28;20940;-85
2023/07/10 00:24:25;;;;;;;57.03;52.50;;;;;;;;;;5096626;28;20510;-84
2023/07/10 00:26:52;;;;;;;56.33;52.23;;;;;;;;;;5096496;28;21242;-84
2023/07/10 00:29:22;;;;;;;61.80;56.37;;;;;;;;;;5096593;28;20857;-86
2023/07/10 00:31:49;;;;;;;60.50;55.70;;;;;;;;;;5096613;28;20456;-85
2023/07/10 00:34:17;;;;;;;60.37;55.43;;;;;;;;;;5096465;28;20477;-85
2023/07/10 00:36:45;;;;;;;60.73;55.77;;;;;;;;;;5095746;28;20435;-86
2023/07/10 00:39:20;;;;;;;56.67;52.23;;;;;;;;;;5096212;28;20735;-85
2023/07/10 00:41:48;;;;;;;58.27;53.90;;;;;;;;;;5095926;28;20454;-86
2023/07/10 00:44:15;;;;;;;59.83;55.07;;;;;;;;;;5096522;28;20433;-84
2023/07/10 00:46:47;;;;;;;60.43;55.73;;;;;;;;;;5095694;28;20450;-85
2023/07/10 00:49:18;;;;;;;58.23;53.40;;;;;;;;;;5095880;28;20469;-85
2023/07/10 00:51:49;;;;;;;62.87;57.67;;;;;;;;;;5095708;28;20432;-85
2023/07/10 00:54:21;;;;;;;62.07;56.80;;;;;;;;;;5095973;28;20413;-86
2023/07/10 00:56:48;;;;;;;63.67;57.63;;;;;;;;;;5095175;28;20460;-85
2023/07/10 00:59:21;;;;;;;67.00;61.53;;;;;;;;;;5095386;28;20436;-85
2023/07/10 01:02:09;;;;;;;61.40;56.17;;;;;;;;;;5095739;28;20420;-85
2023/07/10 01:04:39;;;;;;;63.60;58.10;;;;;;;;;;5089505;28;20416;-87
2023/07/10 01:07:07;;;;;;;62.60;57.03;;;;;;;;;;5094656;28;20547;-86
2023/07/10 01:09:34;;;;;;;61.20;55.73;;;;;;;;;;5095420;28;20472;-86
2023/07/10 01:12:04;;;;;;;62.77;57.70;;;;;;;;;;5095537;28;20447;-87
2023/07/10 01:14:34;;;;;;;65.07;58.83;;;;;;;;;;5095682;28;20432;-87
2023/07/10 01:17:01;;;;;;;62.93;57.07;;;;;;;;;;5093593;28;20471;-86
2023/07/10 01:19:29;;;;;;;76.63;57.47;;;;;;;;;;5095223;28;20473;-85
2023/07/10 01:21:57;;;;;;;66.50;59.67;;;;;;;;;;5095186;28;20457;-87
2023/07/10 01:24:24;;;;;;;61.27;55.17;;;;;;;;;;5095346;28;20441;-85
2023/07/10 01:26:52;;;;;;;61.53;55.83;;;;;;;;;;5094211;28;20486;-87
2023/07/10 01:29:21;;;;;;;86.70;59.40;;;;;;;;;;5094986;28;20444;-86
2023/07/10 01:31:49;;;;;;;65.43;57.83;;;;;;;;;;5095018;28;20515;-86
2023/07/10 01:34:17;;;;;;;61.57;56.23;;;;;;;;;;5095237;28;20506;-86
2023/07/10 01:36:45;;;;;;;71.43;58.90;;;;;;;;;;5094601;28;20433;-87
2023/07/10 01:39:27;;;;;;;81.77;57.83;;;;;;;;;;5094440;28;20946;-86
2023/07/10 01:41:54;;;;;;;76.93;58.23;;;;;;;;;;5095175;28;20446;-85
2023/07/10 01:44:23;;;;;;;66.40;56.57;;;;;;;;;;5094793;28;20435;-86
2023/07/10 01:46:50;;;;;;;86.40;59.27;;;;;;;;;;5094640;28;20437;-86
2023/07/10 01:49:17;;;;;;;63.87;57.37;;;;;;;;;;5094060;28;21013;-87
2023/07/10 01:51:45;;;;;;;63.83;57.37;;;;;;;;;;5094881;28;20448;-86
2023/07/10 01:54:13;;;;;;;63.37;57.33;;;;;;;;;;5094717;28;20436;-85
2023/07/10 01:56:42;;;;;;;65.13;58.70;;;;;;;;;;5094197;28;20416;-87
2023/07/10 01:59:09;;;;;;;61.03;55.80;;;;;;;;;;5094288;28;20465;-87
2023/07/10 02:01:36;;;;;;;61.43;55.60;;;;;;;;;;5094700;28;20517;-86
2023/07/10 02:04:03;;;;;;;57.07;52.50;;;;;;;;;;5094279;28;20437;-86
2023/07/10 02:06:32;;;;;;;54.73;50.23;;;;;;;;;;5094250;28;20448;-86
2023/07/10 02:08:59;;;;;;;55.07;50.33;;;;;;;;;;5093975;28;20473;-85
2023/07/10 02:11:26;;;;;;;55.77;50.80;;;;;;;;;;5093816;28;20763;-83
2023/07/10 02:13:54;;;;;;;55.63;50.70;;;;;;;;;;5094357;28;20435;-86
2023/07/10 02:16:21;;;;;;;57.67;52.77;;;;;;;;;;5094142;28;20441;-85
2023/07/10 02:18:48;;;;;;;56.40;51.40;;;;;;;;;;5095031;28;20419;-86
2023/07/10 02:21:15;;;;;;;56.83;52.20;;;;;;;;;;5094214;28;20467;-86
2023/07/10 02:23:47;;;;;;;56.87;51.97;;;;;;;;;;5094882;28;20565;-86
2023/07/10 02:26:14;;;;;;;56.67;51.60;;;;;;;;;;5094490;28;20464;-85
2023/07/10 02:28:41;;;;;;;53.90;49.40;;;;;;;;;;5098851;28;20459;-86
2023/07/10 02:31:10;;;;;;;56.30;51.70;;;;;;;;;;5100120;28;20485;-85
2023/07/10 02:33:37;;;;;;;52.70;48.07;;;;;;;;;;5098530;28;20937;-86
2023/07/10 02:36:04;;;;;;;52.83;48.23;;;;;;;;;;5098101;28;20440;-85
2023/07/10 02:38:31;;;;;;;54.47;49.77;;;;;;;;;;5098746;28;20473;-85
2023/07/10 02:40:58;;;;;;;52.97;48.50;;;;;;;;;;5097802;28;20488;-85
2023/07/10 02:43:25;;;;;;;51.20;46.50;;;;;;;;;;5098389;28;20408;-84
2023/07/10 02:45:52;;;;;;;51.23;46.50;;;;;;;;;;5098038;28;20456;-84
2023/07/10 02:48:21;;;;;;;50.47;46.23;;;;;;;;;;5098068;28;20875;-84
2023/07/10 02:50:48;;;;;;;53.33;48.40;;;;;;;;;;5097774;28;20455;-85
2023/07/10 02:53:15;;;;;;;53.43;48.37;;;;;;;;;;5098339;28;20449;-85
2023/07/10 02:55:42;;;;;;;50.43;46.43;;;;;;;;;;5097498;28;20419;-84
2023/07/10 02:58:09;;;;;;;49.47;44.80;;;;;;;;;;5097822;28;20458;-85
2023/07/10 03:00:36;;;;;;;50.57;46.07;;;;;;;;;;5097382;28;20799;-84
2023/07/10 03:03:03;;;;;;;50.10;45.63;;;;;;;;;;5097843;28;20421;-85
2023/07/10 03:05:32;;;;;;;48.90;44.67;;;;;;;;;;5098223;28;20432;-84
2023/07/10 03:07:59;;;;;;;49.13;44.70;;;;;;;;;;5098727;28;20449;-85
2023/07/10 03:10:26;;;;;;;47.97;43.77;;;;;;;;;;5097863;28;20879;-85
2023/07/10 03:12:53;;;;;;;49.30;45.10;;;;;;;;;;5097453;28;20460;-85
2023/07/10 03:15:20;;;;;;;50.70;46.53;;;;;;;;;;5098016;28;20453;-85
2023/07/10 03:17:47;;;;;;;49.63;44.97;;;;;;;;;;5097422;28;20431;-85
2023/07/10 03:20:14;;;;;;;48.23;44.20;;;;;;;;;;5098633;28;20456;-86
2023/07/10 03:22:42;;;;;;;50.57;46.37;;;;;;;;;;5099393;28;20448;-85
2023/07/10 03:25:09;;;;;;;49.83;45.53;;;;;;;;;;5098348;28;20453;-84
2023/07/10 03:27:36;;;;;;;48.13;43.93;;;;;;;;;;5096932;28;20415;-83
2023/07/10 03:30:04;;;;;;;50.30;45.43;;;;;;;;;;5100840;28;20459;-84
2023/07/10 03:32:31;;;;;;;48.87;44.03;;;;;;;;;;5116087;28;20439;-84
2023/07/10 03:34:58;;;;;;;50.17;45.03;;;;;;;;;;5116086;28;20475;-83
2023/07/10 03:37:25;;;;;;;47.23;42.63;;;;;;;;;;5112507;28;20784;-86
2023/07/10 03:39:53;;;;;;;51.00;46.20;;;;;;;;;;5098101;28;20486;-87
2023/07/10 03:42:20;;;;;;;50.90;46.17;;;;;;;;;;5098706;28;20478;-86
2023/07/10 03:44:47;;;;;;;49.23;44.57;;;;;;;;;;5098971;28;20392;-85
2023/07/10 03:47:14;;;;;;;47.50;42.10;;;;;;;;;;5098821;28;20412;-86
2023/07/10 03:49:41;;;;;;;51.97;46.87;;;;;;;;;;5099230;28;20477;-85
2023/07/10 03:52:09;;;;;;;51.57;46.27;;;;;;;;;;5098038;28;20977;-86
2023/07/10 03:54:36;;;;;;;53.50;47.70;;;;;;;;;;5098077;28;20522;-85
2023/07/10 03:57:04;;;;;;;54.30;48.80;;;;;;;;;;5097653;28;20448;-85
2023/07/10 03:59:31;;;;;;;53.13;47.97;;;;;;;;;;5098457;28;20448;-84
2023/07/10 04:01:58;;;;;;;48.77;44.13;;;;;;;;;;5098480;28;21000;-86
2023/07/10 04:04:25;;;;;;;50.30;45.80;;;;;;;;;;5097958;28;20439;-86
2023/07/10 04:06:52;;;;;;;53.03;47.70;;;;;;;;;;5097553;28;21112;-84
2023/07/10 04:09:19;;;;;;;51.53;46.90;;;;;;;;;;5097709;28;20508;-85
2023/07/10 04:11:46;;;;;;;50.33;45.60;;;;;;;;;;5097829;28;20939;-85
2023/07/10 04:14:14;;;;;;;51.47;45.90;;;;;;;;;;5097168;28;20472;-86
2023/07/10 04:16:41;;;;;;;50.63;45.57;;;;;;;;;;5095991;28;20457;-84
2023/07/10 04:19:09;;;;;;;53.80;48.37;;;;;;;;;;5096304;28;20498;-84
2023/07/10 04:21:36;;;;;;;53.40;48.37;;;;;;;;;;5095918;28;20827;-84
2023/07/10 04:24:04;;;;;;;53.47;48.10;;;;;;;;;;5095674;28;20451;-83
2023/07/10 04:26:32;;;;;;;53.57;48.07;;;;;;;;;;5095274;28;20444;-84
2023/07/10 04:29:00;;;;;;;53.53;48.00;;;;;;;;;;5096122;28;20460;-83
2023/07/10 04:31:29;;;;;;;52.50;47.27;;;;;;;;;;5095982;28;20427;-84
2023/07/10 04:33:57;;;;;;;51.03;46.43;;;;;;;;;;5095700;28;20443;-85
2023/07/10 04:36:24;;;;;;;51.47;46.80;;;;;;;;;;5095429;28;20408;-84
2023/07/10 04:38:51;;;;;;;48.83;44.40;;;;;;;;;;5095892;28;20433;-84
2023/07/10 04:41:19;;;;;;;49.00;44.00;;;;;;;;;;5095618;28;21193;-84
2023/07/10 04:43:46;;;;;;;43.20;39.10;;;;;;;;;;5095434;28;20464;-84
2023/07/10 04:46:14;;;;;;;46.30;42.17;;;;;;;;;;5094970;28;20460;-84
2023/07/10 04:48:43;;;;;;;49.17;44.53;;;;;;;;;;5095600;28;20449;-84
2023/07/10 04:51:11;;;;;;;50.70;45.90;;;;;;;;;;5095423;28;20530;-84
2023/07/10 04:53:38;;;;;;;50.33;45.93;;;;;;;;;;5094935;28;20468;-84
2023/07/10 04:56:06;;;;;;;49.63;45.10;;;;;;;;;;5094854;28;20487;-85
2023/07/10 04:58:46;;;;;;;49.87;45.30;;;;;;;;;;5095268;28;20542;-84
2023/07/10 05:01:14;;;;;;;49.83;45.17;;;;;;;;;;5093587;28;20811;-86
2023/07/10 05:03:42;;;;;;;52.03;47.27;;;;;;;;;;5095806;28;20439;-84
2023/07/10 05:06:10;;;;;;;52.27;47.60;;;;;;;;;;5095055;28;20403;-84
2023/07/10 05:08:37;;;;;;;52.23;47.37;;;;;;;;;;5100921;28;20455;-84
2023/07/10 05:11:04;;;;;;;50.37;45.63;;;;;;;;;;5094609;28;20436;-84
2023/07/10 05:13:31;;;;;;;52.87;47.63;;;;;;;;;;5075177;28;20413;-84
2023/07/10 05:15:59;;;;;;;51.97;47.40;;;;;;;;;;5074141;28;20468;-85
2023/07/10 05:18:26;;;;;;;50.20;45.80;;;;;;;;;;5075034;28;20849;-84
2023/07/10 05:20:55;;;;;;;50.17;45.93;;;;;;;;;;5074611;28;21036;-84
2023/07/10 05:23:22;;;;;;;50.80;46.30;;;;;;;;;;5074358;28;20445;-84
2023/07/10 05:25:56;;;;;;;54.17;49.27;;;;;;;;;;5073177;28;20453;-84
2023/07/10 05:28:23;;;;;;;52.10;47.20;;;;;;;;;;5074814;28;20466;-84
2023/07/10 05:30:50;;;;;;;56.87;51.23;;;;;;;;;;5073888;28;20531;-84
2023/07/10 05:33:17;;;;;;;52.77;47.67;;;;;;;;;;5073536;28;20429;-86
2023/07/10 05:35:50;;;;;;;53.10;48.20;;;;;;;;;;5072666;28;20428;-84
2023/07/10 05:38:19;;;;;;;53.03;48.07;;;;;;;;;;5073271;28;20885;-82
2023/07/10 05:40:46;;;;;;;55.60;50.20;;;;;;;;;;5072750;28;20471;-81
2023/07/10 05:43:13;;;;;;;56.77;51.37;;;;;;;;;;5073455;28;20460;-82
2023/07/10 05:45:40;;;;;;;56.83;51.20;;;;;;;;;;5075629;28;20478;-85
2023/07/10 05:48:07;;;;;;;56.67;51.00;;;;;;;;;;5078957;28;20433;-86
2023/07/10 05:50:34;;;;;;;54.20;49.00;;;;;;;;;;5074972;28;20485;-84
2023/07/10 05:53:01;;;;;;;51.90;47.30;;;;;;;;;;5074046;28;20441;-81
2023/07/10 05:55:29;;;;;;;50.87;46.43;;;;;;;;;;5073668;28;20424;-82
2023/07/10 05:57:56;;;;;;;48.17;43.57;;;;;;;;;;5073373;28;20936;-84
2023/07/10 06:00:23;;;;;;;48.73;44.83;;;;;;;;;;5073546;28;20810;-82
2023/07/10 06:02:50;;;;;;;47.97;43.97;;;;;;;;;;5073189;28;20432;-82
2023/07/10 06:05:17;;;;;;;47.37;43.17;;;;;;;;;;5073791;28;20474;-82
2023/07/10 06:07:44;;;;;;;45.20;41.40;;;;;;;;;;5073542;28;20453;-81
2023/07/10 06:10:11;;;;;;;46.90;42.60;;;;;;;;;;5073557;28;20493;-83
2023/07/10 06:12:41;;;;;;;50.77;46.37;;;;;;;;;;5073404;28;20859;-83
2023/07/10 06:15:08;;;;;;;50.33;45.77;;;;;;;;;;5073857;28;20793;-85
2023/07/10 06:17:35;;;;;;;46.83;42.53;;;;;;;;;;5074224;28;20522;-85
2023/07/10 06:20:18;;;;;;;47.50;43.17;;;;;;;;;;5074463;28;20474;-85
2023/07/10 06:22:45;;;;;;;45.40;41.40;;;;;;;;;;5073461;28;21002;-82
2023/07/10 06:25:12;;;;;;;42.07;38.23;;;;;;;;;;5073387;28;20457;-81
2023/07/10 06:27:40;;;;;;;44.03;40.20;;;;;;;;;;5072808;28;20450;-82
2023/07/10 06:30:08;;;;;;;46.60;42.60;;;;;;;;;;5072847;28;20889;-81
2023/07/10 06:32:36;;;;;;;45.80;41.70;;;;;;;;;;5074808;28;20447;-81
2023/07/10 06:35:03;;;;;;;44.33;40.83;;;;;;;;;;5073295;28;20428;-81
2023/07/10 06:37:30;;;;;;;42.77;39.17;;;;;;;;;;5072345;28;20419;-81
2023/07/10 06:40:08;;;;;;;46.30;42.20;;;;;;;;;;5072876;28;21068;-81
2023/07/10 06:42:35;;;;;;;43.47;39.97;;;;;;;;;;5073431;28;20473;-81
2023/07/10 06:45:03;;;;;;;41.83;38.13;;;;;;;;;;5073319;28;20428;-82
2023/07/10 06:47:31;;;;;;;41.37;37.77;;;;;;;;;;5072588;28;20449;-82
2023/07/10 06:49:58;;;;;;;39.87;36.47;;;;;;;;;;5072856;28;20492;-82
2023/07/10 06:52:25;;;;;;;40.63;37.17;;;;;;;;;;5072416;28;20501;-82
2023/07/10 06:54:53;;;;;;;41.23;37.77;;;;;;;;;;5072725;28;20454;-82
2023/07/10 06:57:20;;;;;;;41.97;38.43;;;;;;;;;;5072621;28;20434;-84
2023/07/10 06:59:47;;;;;;;38.93;35.37;;;;;;;;;;5073277;28;20490;-85
2023/07/10 07:02:16;;;;;;;41.80;37.77;;;;;;;;;;5088428;28;21023;-84
2023/07/10 07:04:43;;;;;;;41.10;37.70;;;;;;;;;;5093645;28;20442;-83
2023/07/10 07:07:10;;;;;;;42.07;38.47;;;;;;;;;;5094011;28;20411;-84
2023/07/10 07:09:37;;;;;;;41.30;37.80;;;;;;;;;;5094080;28;21237;-85
2023/07/10 07:12:04;;;;;;;39.57;36.07;;;;;;;;;;5093407;28;20952;-85
2023/07/10 07:14:32;;;;;;;40.17;36.87;;;;;;;;;;5095416;28;20978;-79
2023/07/10 07:16:59;;;;;;;42.07;38.47;;;;;;;;;;5096650;28;20839;-89
2023/07/10 07:19:27;;;;;;;38.07;35.00;;;;;;;;;;5097709;28;20467;-88
2023/07/10 07:21:54;;;;;;;37.70;34.77;;;;;;;;;;5097332;28;20485;-88
2023/07/10 07:24:22;;;;;;;38.53;35.40;;;;;;;;;;5097991;28;20460;-87
2023/07/10 07:26:49;;;;;;;40.10;36.90;;;;;;;;;;5098748;28;20457;-87
2023/07/10 07:29:16;;;;;;;37.80;34.90;;;;;;;;;;5098438;28;20420;-88
2023/07/10 07:31:43;;;;;;;37.00;34.07;;;;;;;;;;5097980;28;20484;-88
2023/07/10 07:34:10;;;;;;;36.87;33.90;;;;;;;;;;5098104;28;20431;-88
2023/07/10 07:36:38;;;;;;;36.50;33.80;;;;;;;;;;5097177;28;20781;-88
2023/07/10 07:39:06;;;;;;;35.53;33.03;;;;;;;;;;5098097;28;20488;-88
2023/07/10 07:41:33;;;;;;;36.63;33.67;;;;;;;;;;5097055;28;20951;-79
2023/07/10 07:44:00;;;;;;;36.83;33.40;;;;;;;;;;5097577;28;20520;-89
2023/07/10 07:46:28;;;;;;;36.60;33.97;;;;;;;;;;5098350;28;21051;-82
2023/07/10 07:48:55;;;;;;;35.90;33.00;;;;;;;;;;5097615;28;20457;-83
2023/07/10 07:51:22;;;;;;;32.90;30.50;;;;;;;;;;5095905;28;20518;-81
2023/07/10 07:54:02;;;;;;;34.83;32.33;;;;;;;;;;5095174;28;20490;-84
2023/07/10 07:56:29;;;;;;;30.77;28.53;;;;;;;;;;5097649;28;20497;-84
2023/07/10 07:58:56;;;;;;;33.50;31.10;;;;;;;;;;5097856;28;20441;-87
2023/07/10 08:01:23;;;;;;;33.20;30.60;;;;;;;;;;5096376;28;20447;-79
2023/07/10 08:03:50;;;;;;;29.93;28.03;;;;;;;;;;5097400;28;20419;-82
2023/07/10 08:06:17;;;;;;;30.50;28.37;;;;;;;;;;5094623;28;20872;-82
2023/07/10 08:08:44;;;;;;;27.67;25.87;;;;;;;;;;5095709;28;20453;-84
2023/07/10 08:11:12;;;;;;;27.00;25.40;;;;;;;;;;5095961;28;20459;-82
2023/07/10 08:13:39;;;;;;;26.77;24.60;;;;;;;;;;5096061;28;20467;-83
2023/07/10 08:16:06;;;;;;;28.27;26.43;;;;;;;;;;5095406;28;20500;-84
2023/07/10 08:18:33;;;;;;;26.03;24.40;;;;;;;;;;5096058;28;20441;-84
2023/07/10 08:21:03;;;;;;;27.47;25.77;;;;;;;;;;5096173;28;20517;-84
2023/07/10 08:23:30;;;;;;;27.60;25.90;;;;;;;;;;5095900;28;20436;-84
2023/07/10 08:25:57;;;;;;;26.60;24.80;;;;;;;;;;5094227;28;20423;-84
2023/07/10 08:28:25;;;;;;;25.53;23.93;;;;;;;;;;5083869;28;20472;-83
2023/07/10 08:30:52;;;;;;;25.70;24.13;;;;;;;;;;5095255;28;20516;-84
2023/07/10 08:33:19;;;;;;;26.50;24.80;;;;;;;;;;5097075;28;20453;-84
2023/07/10 08:35:53;;;;;;;25.37;23.80;;;;;;;;;;5094883;28;20445;-83
2023/07/10 08:38:20;;;;;;;24.43;22.73;;;;;;;;;;5095425;28;20447;-84
2023/07/10 08:40:49;;;;;;;25.30;23.53;;;;;;;;;;5095751;28;20522;-83
2023/07/10 08:43:19;;;;;;;24.30;22.70;;;;;;;;;;5095164;28;20449;-83
2023/07/10 08:45:48;;;;;;;23.37;22.07;;;;;;;;;;5096997;28;20415;-80
2023/07/10 08:48:22;;;;;;;23.07;21.60;;;;;;;;;;5110764;28;20436;-87
2023/07/10 08:50:49;;;;;;;23.10;21.60;;;;;;;;;;5112253;28;20485;-81
2023/07/10 08:53:21;;;;;;;24.83;23.10;;;;;;;;;;5107623;28;20449;-83
2023/07/10 08:56:05;;;;;;;23.90;22.60;;;;;;;;;;5095456;28;20983;-85
2023/07/10 08:58:34;;;;;;;23.77;22.27;;;;;;;;;;5099605;28;20424;-87
2023/07/10 09:01:04;;;;;;;24.13;22.73;;;;;;;;;;5098034;28;20458;-85
2023/07/10 09:03:37;;;;;;;24.20;22.80;;;;;;;;;;5097332;28;20432;-82
2023/07/10 09:06:06;;;;;;;23.90;22.37;;;;;;;;;;5094486;28;20415;-81
2023/07/10 09:08:34;;;;;;;25.10;23.30;;;;;;;;;;5095327;28;20464;-82
2023/07/10 09:11:02;;;;;;;24.40;23.07;;;;;;;;;;5094523;28;20491;-82
2023/07/10 09:13:33;;;;;;;23.70;22.20;;;;;;;;;;5095986;28;20944;-88
2023/07/10 09:16:00;;;;;;;25.07;23.30;;;;;;;;;;5094367;28;20448;-82
2023/07/10 09:18:36;;;;;;;25.07;23.57;;;;;;;;;;5094865;28;20467;-81
2023/07/10 09:21:09;;;;;;;23.50;22.10;;;;;;;;;;5094010;28;20480;-82
2023/07/10 09:23:36;;;;;;;23.80;22.30;;;;;;;;;;5096698;28;20412;-88
2023/07/10 09:26:09;;;;;;;23.00;21.60;;;;;;;;;;5095961;28;20433;-83
2023/07/10 09:28:37;;;;;;;22.53;21.33;;;;;;;;;;5094560;28;20698;-81
2023/07/10 09:31:06;;;;;;;23.70;22.10;;;;;;;;;;5095344;28;20497;-80
2023/07/10 09:33:44;;;;;;;23.53;22.13;;;;;;;;;;5093930;28;20435;-80
2023/07/10 09:36:15;;;;;;;22.50;21.10;;;;;;;;;;5092584;28;20415;-81
2023/07/10 09:38:44;;;;;;;24.07;22.57;;;;;;;;;;5093713;28;20407;-79
2023/07/10 09:41:12;;;;;;;24.37;22.77;;;;;;;;;;5094878;28;20457;-87
2023/07/10 09:43:39;;;;;;;24.07;22.47;;;;;;;;;;5095810;28;20420;-82
2023/07/10 09:46:06;;;;;;;25.80;23.97;;;;;;;;;;5093016;28;20913;-82
2023/07/10 09:48:35;;;;;;;24.60;23.00;;;;;;;;;;5094125;28;20415;-80
2023/07/10 09:51:04;;;;;;;24.10;22.60;;;;;;;;;;5093487;28;20534;-79
2023/07/10 09:53:32;;;;;;;24.37;22.77;;;;;;;;;;5093710;28;20900;-80
2023/07/10 09:55:59;;;;;;;23.80;22.40;;;;;;;;;;5092646;28;20464;-84
2023/07/10 09:58:26;;;;;;;22.10;20.90;;;;;;;;;;5094360;28;20494;-83
2023/07/10 10:00:53;;;;;;;23.60;22.10;;;;;;;;;;5096081;28;20432;-80
2023/07/10 10:03:24;;;;;;;23.30;21.90;;;;;;;;;;5094657;28;20449;-79
2023/07/10 10:05:53;;;;;;;24.43;22.93;;;;;;;;;;5092961;28;20439;-79
2023/07/10 10:08:23;;;;;;;22.93;21.53;;;;;;;;;;5093584;28;20900;-80
2023/07/10 10:11:01;;;;;;;22.70;21.20;;;;;;;;;;5093095;28;20969;-81
2023/07/10 10:13:30;;;;;;;23.07;21.70;;;;;;;;;;5093365;28;20448;-82
2023/07/10 10:16:03;;;;;;;23.77;22.27;;;;;;;;;;5092817;28;20508;-82
2023/07/10 10:18:34;;;;;;;22.53;21.13;;;;;;;;;;5091819;28;20450;-77
2023/07/10 10:21:02;;;;;;;22.73;21.33;;;;;;;;;;5091893;28;20510;-78
2023/07/10 10:23:32;;;;;;;23.30;21.60;;;;;;;;;;5091939;28;20448;-78
2023/07/10 10:26:06;;;;;;;23.00;21.50;;;;;;;;;;5090789;28;20930;-77
2023/07/10 10:28:39;;;;;;;23.47;21.97;;;;;;;;;;5091963;28;20453;-77
2023/07/10 10:31:08;;;;;;;22.80;21.30;;;;;;;;;;5091674;28;20481;-78
2023/07/10 10:33:39;;;;;;;22.67;21.33;;;;;;;;;;5090752;28;20443;-79
2023/07/10 10:36:13;;;;;;;23.43;22.00;;;;;;;;;;5091138;28;20450;-79
2023/07/10 10:38:47;;;;;;;23.43;22.07;;;;;;;;;;5091770;28;20433;-77
2023/07/10 10:41:20;;;;;;;23.03;21.53;;;;;;;;;;5091595;28;20472;-78
2023/07/10 10:43:53;;;;;;;22.23;20.80;;;;;;;;;;5091984;28;20411;-78
2023/07/10 10:46:26;;;;;;;23.17;21.73;;;;;;;;;;5090661;28;20488;-78
2023/07/10 10:48:58;;;;;;;22.93;21.57;;;;;;;;;;5094128;28;20416;-80
2023/07/10 10:51:29;;;;;;;22.80;21.40;;;;;;;;;;5095155;28;20503;-77
2023/07/10 10:54:01;;;;;;;24.87;23.43;;;;;;;;;;5095467;28;20447;-77
2023/07/10 10:56:30;;;;;;;26.10;23.97;;;;;;;;;;5094441;28;20437;-78
2023/07/10 10:59:04;;;;;;;25.00;23.10;;;;;;;;;;5095001;28;20781;-78
2023/07/10 11:01:34;;;;;;;23.50;22.00;;;;;;;;;;5094475;28;20480;-77
2023/07/10 11:04:04;;;;;;;24.47;22.97;;;;;;;;;;5095668;28;20416;-78
2023/07/10 11:06:37;;;;;;;24.87;23.27;;;;;;;;;;5093566;28;20449;-77
2023/07/10 11:09:09;;;;;;;25.00;23.40;;;;;;;;;;5094417;28;20445;-77
2023/07/10 11:11:38;;;;;;;24.80;23.20;;;;;;;;;;5094581;28;20821;-77
2023/07/10 11:14:06;;;;;;;23.97;22.57;;;;;;;;;;5094567;28;20443;-77
2023/07/10 11:16:35;;;;;;;23.57;22.17;;;;;;;;;;5093843;28;20499;-77
2023/07/10 11:19:02;;;;;;;23.93;22.53;;;;;;;;;;5094945;28;20450;-77
2023/07/10 11:21:30;;;;;;;23.37;21.87;;;;;;;;;;5094415;28;20579;-76
2023/07/10 11:23:58;;;;;;;23.70;22.00;;;;;;;;;;5094542;28;20797;-76
2023/07/10 11:26:27;;;;;;;23.27;21.77;;;;;;;;;;5094338;28;20419;-77
2023/07/10 11:28:56;;;;;;;23.37;21.97;;;;;;;;;;5094161;28;20453;-78
2023/07/10 11:31:25;;;;;;;23.50;21.70;;;;;;;;;;5094474;28;20462;-77
2023/07/10 11:33:52;;;;;;;23.70;22.23;;;;;;;;;;5094212;28;20419;-77
2023/07/10 11:36:20;;;;;;;23.03;21.63;;;;;;;;;;5093854;28;20452;-76
2023/07/10 11:38:57;;;;;;;22.97;21.57;;;;;;;;;;5094037;28;20477;-77
2023/07/10 11:41:28;;;;;;;24.23;22.60;;;;;;;;;;5094138;28;20517;-77
2023/07/10 11:43:58;;;;;;;23.93;22.13;;;;;;;;;;5094407;28;20452;-77
2023/07/10 11:46:28;;;;;;;24.37;22.87;;;;;;;;;;5093797;28;20502;-77
2023/07/10 11:49:03;;;;;;;23.47;22.00;;;;;;;;;;5094119;28;20423;-78
2023/07/10 11:51:33;;;;;;;23.53;22.10;;;;;;;;;;5093759;28;20458;-76
2023/07/10 11:54:17;;;;;;;24.33;22.90;;;;;;;;;;5093662;28;21157;-77
2023/07/10 11:56:59;;;;;;;24.40;23.00;;;;;;;;;;5093132;28;20456;-79
2023/07/10 11:59:27;;;;;;;24.93;23.23;;;;;;;;;;5093182;28;20415;-77
2023/07/10 12:01:54;;;;;;;24.37;22.70;;;;;;;;;;5093711;28;21238;-77
2023/07/10 12:04:22;;;;;;;23.87;22.27;;;;;;;;;;5093797;28;20427;-77
2023/07/10 12:06:50;;;;;;;24.80;23.10;;;;;;;;;;5092926;28;20472;-77
2023/07/10 12:09:17;;;;;;;24.30;22.70;;;;;;;;;;5094016;28;20416;-77
2023/07/10 12:11:45;;;;;;;24.90;23.30;;;;;;;;;;5093764;28;20467;-77
2023/07/10 12:14:12;;;;;;;24.63;23.07;;;;;;;;;;5093318;28;20419;-77
2023/07/10 12:16:44;;;;;;;23.30;21.80;;;;;;;;;;5092902;28;20518;-77
2023/07/10 12:19:14;;;;;;;22.53;21.13;;;;;;;;;;5091941;28;20423;-76
2023/07/10 12:21:41;;;;;;;22.90;21.50;;;;;;;;;;5093229;28;20479;-76
2023/07/10 12:24:13;;;;;;;23.93;22.43;;;;;;;;;;5093630;28;20460;-77
2023/07/10 12:26:40;;;;;;;24.10;22.60;;;;;;;;;;5094158;28;20913;-79
2023/07/10 12:29:11;;;;;;;23.43;21.90;;;;;;;;;;5094809;28;20669;-79
2023/07/10 12:31:38;;;;;;;23.30;21.80;;;;;;;;;;5094547;28;20480;-78
2023/07/10 12:34:07;;;;;;;23.73;22.23;;;;;;;;;;5094806;28;20432;-78
2023/07/10 12:36:35;;;;;;;22.90;21.40;;;;;;;;;;5094485;28;20506;-77
2023/07/10 12:39:03;;;;;;;23.40;22.00;;;;;;;;;;5094420;28;20961;-78
2023/07/10 12:41:32;;;;;;;23.13;21.73;;;;;;;;;;5094512;28;20529;-78
2023/07/10 12:44:02;;;;;;;23.03;21.53;;;;;;;;;;5094922;28;20423;-79
2023/07/10 12:46:30;;;;;;;24.10;22.30;;;;;;;;;;5094356;28;20477;-80
2023/07/10 12:48:59;;;;;;;23.23;21.83;;;;;;;;;;5095164;28;20493;-77
2023/07/10 12:51:29;;;;;;;24.37;22.57;;;;;;;;;;5094678;28;20542;-80
2023/07/10 12:53:59;;;;;;;22.60;21.13;;;;;;;;;;5095096;28;20407;-78
2023/07/10 12:56:27;;;;;;;23.47;21.80;;;;;;;;;;5094087;28;20456;-78
2023/07/10 12:58:56;;;;;;;24.03;22.50;;;;;;;;;;5094447;28;20457;-78
2023/07/10 13:01:27;;;;;;;23.27;21.57;;;;;;;;;;5094696;28;20469;-78
2023/07/10 13:04:01;;;;;;;23.63;22.13;;;;;;;;;;5094259;28;20828;-78
2023/07/10 13:06:29;;;;;;;23.30;21.90;;;;;;;;;;5094702;28;20418;-80
2023/07/10 13:08:57;;;;;;;22.87;21.47;;;;;;;;;;5095148;28;20448;-79
2023/07/10 13:11:25;;;;;;;23.67;21.97;;;;;;;;;;5093685;28;20473;-80
2023/07/10 13:13:52;;;;;;;23.07;21.57;;;;;;;;;;5095140;28;20431;-78
2023/07/10 13:16:21;;;;;;;23.27;21.87;;;;;;;;;;5093916;28;20829;-78
2023/07/10 13:18:48;;;;;;;24.00;22.40;;;;;;;;;;5095320;28;20952;-78
2023/07/10 13:21:18;;;;;;;23.43;21.80;;;;;;;;;;5094807;28;20443;-78
2023/07/10 13:23:47;;;;;;;23.53;22.03;;;;;;;;;;5093741;28;20470;-78
2023/07/10 13:26:18;;;;;;;23.63;22.13;;;;;;;;;;5093094;28;20464;-77
2023/07/10 13:28:46;;;;;;;24.00;22.40;;;;;;;;;;5092063;28;20836;-76
2023/07/10 13:31:12;;;;;;;22.77;21.37;;;;;;;;;;5091155;28;20436;-77
2023/07/10 13:33:39;;;;;;;22.93;21.53;;;;;;;;;;5092108;28;20459;-77
2023/07/10 13:36:12;;;;;;;23.63;22.13;;;;;;;;;;5090972;28;20469;-78
2023/07/10 13:38:39;;;;;;;22.77;21.37;;;;;;;;;;5091233;28;20415;-78
2023/07/10 13:41:09;;;;;;;23.47;22.07;;;;;;;;;;5091769;28;20447;-78
2023/07/10 13:43:36;;;;;;;24.20;22.60;;;;;;;;;;5093216;28;20437;-78
2023/07/10 13:46:06;;;;;;;23.43;21.93;;;;;;;;;;5092830;28;20476;-78
2023/07/10 13:48:33;;;;;;;24.53;22.93;;;;;;;;;;5094342;28;20467;-79
2023/07/10 13:51:00;;;;;;;23.00;21.43;;;;;;;;;;5094104;28;20460;-79
2023/07/10 13:53:27;;;;;;;23.80;22.27;;;;;;;;;;5102721;28;20463;-80
2023/07/10 13:55:54;;;;;;;23.23;21.83;;;;;;;;;;5112801;28;20445;-79
2023/07/10 13:58:24;;;;;;;23.30;21.90;;;;;;;;;;5112522;28;20416;-82
2023/07/10 14:00:54;;;;;;;23.67;22.27;;;;;;;;;;5102687;28;20443;-79
2023/07/10 14:03:21;;;;;;;23.50;22.10;;;;;;;;;;5094110;28;20412;-79
2023/07/10 14:05:49;;;;;;;24.20;22.60;;;;;;;;;;5094172;28;20436;-80
2023/07/10 14:08:22;;;;;;;23.80;22.40;;;;;;;;;;5093550;28;20496;-80
2023/07/10 14:10:50;;;;;;;24.47;22.97;;;;;;;;;;5094602;28;20446;-79
2023/07/10 14:13:17;;;;;;;24.37;22.77;;;;;;;;;;5094277;28;20459;-79
2023/07/10 14:15:45;;;;;;;24.50;22.50;;;;;;;;;;5093492;28;20427;-78
2023/07/10 14:18:15;;;;;;;24.67;23.07;;;;;;;;;;5093664;28;20468;-80
2023/07/10 14:20:43;;;;;;;24.67;23.17;;;;;;;;;;5094141;28;21004;-79
2023/07/10 14:23:14;;;;;;;23.10;21.63;;;;;;;;;;5093994;28;20414;-80
2023/07/10 14:25:41;;;;;;;23.47;21.83;;;;;;;;;;5093709;28;20511;-79